sensor_id;sensor_type;location;lat;lon;timestamp;pressure;altitude;pressure_sealevel;temperature;humidity
54146;BME280;40052;49.422;7.738;2022-10-12T00:01:34;75819.97;;;-145.25;78.99
54146;BME280;40052;49.422;7.738;2022-10-12T00:04:04;75838.03;;;-145.25;79.46
54146;BME280;40052;49.422;7.738;2022-10-12T00:06:30;75840.03;;;-145.25;80.27
54146;BME280;40052;49.422;7.738;2022-10-12T00:08:55;75811.97;;;-145.25;78.37
54146;BME280;40052;49.422;7.738;2022-10-12T00:11:24;75819.97;;;-145.25;77.84
54146;BME280;40052;49.422;7.738;2022-10-12T00:13:50;75819.97;;;-145.25;77.24
54146;BME280;40052;49.422;7.738;2022-10-12T00:16:17;75826.00;;;-145.25;76.89
54146;BME280;40052;49.422;7.738;2022-10-12T00:18:53;75828.00;;;-145.25;76.87
54146;BME280;40052;49.422;7.738;2022-10-12T00:21:19;75834.00;;;-145.25;77.29
54146;BME280;40052;49.422;7.738;2022-10-12T00:23:45;75811.97;;;-145.25;77.45
54146;BME280;40052;49.422;7.738;2022-10-12T00:26:15;75799.94;;;-145.25;77.58
54146;BME280;40052;49.422;7.738;2022-10-12T00:28:43;75787.91;;;-145.25;76.95
54146;BME280;40052;49.422;7.738;2022-10-12T00:31:11;75771.88;;;-145.25;77.14
54146;BME280;40052;49.422;7.738;2022-10-12T00:33:38;75799.94;;;-145.25;78.63
54146;BME280;40052;49.422;7.738;2022-10-12T00:38:39;75805.94;;;-145.25;78.35
54146;BME280;40052;49.422;7.738;2022-10-12T00:41:07;75799.94;;;-145.25;77.63
54146;BME280;40052;49.422;7.738;2022-10-12T00:43:40;75809.97;;;-145.25;76.98
54146;BME280;40052;49.422;7.738;2022-10-12T00:46:42;75807.94;;;-145.25;76.00
54146;BME280;40052;49.422;7.738;2022-10-12T00:51:37;75807.94;;;-145.25;77.03
54146;BME280;40052;49.422;7.738;2022-10-12T00:54:10;75840.03;;;-145.25;78.52
54146;BME280;40052;49.422;7.738;2022-10-12T00:56:42;75846.03;;;-145.25;78.37
54146;BME280;40052;49.422;7.738;2022-10-12T00:59:13;75838.03;;;-145.25;78.82
54146;BME280;40052;49.422;7.738;2022-10-12T01:01:40;75824.00;;;-145.25;78.53
54146;BME280;40052;49.422;7.738;2022-10-12T01:04:09;75824.00;;;-145.25;78.32
54146;BME280;40052;49.422;7.738;2022-10-12T01:06:35;75824.00;;;-145.25;79.18
54146;BME280;40052;49.422;7.738;2022-10-12T01:09:01;75854.06;;;-145.25;78.41
54146;BME280;40052;49.422;7.738;2022-10-12T01:11:31;75848.03;;;-145.25;78.63
54146;BME280;40052;49.422;7.738;2022-10-12T01:13:57;75864.09;;;-145.25;79.06
54146;BME280;40052;49.422;7.738;2022-10-12T01:16:40;75862.06;;;-145.25;79.41
54146;BME280;40052;49.422;7.738;2022-10-12T01:22:04;75878.13;;;-145.25;80.22
54146;BME280;40052;49.422;7.738;2022-10-12T01:27:26;75902.16;;;-145.25;81.39
54146;BME280;40052;49.422;7.738;2022-10-12T01:30:16;75914.19;;;-145.25;81.79
54146;BME280;40052;49.422;7.738;2022-10-12T01:35:33;75872.09;;;-145.25;80.35
54146;BME280;40052;49.422;7.738;2022-10-12T01:38:04;75866.09;;;-145.25;79.25
54146;BME280;40052;49.422;7.738;2022-10-12T01:43:08;75916.19;;;-145.25;81.37
54146;BME280;40052;49.422;7.738;2022-10-12T01:45:33;75922.22;;;-145.25;81.20
54146;BME280;40052;49.422;7.738;2022-10-12T01:48:00;75900.16;;;-145.25;80.15
54146;BME280;40052;49.422;7.738;2022-10-12T01:50:44;75908.19;;;-145.25;79.07
54146;BME280;40052;49.422;7.738;2022-10-12T01:56:18;75920.22;;;-145.25;79.15
54146;BME280;40052;49.422;7.738;2022-10-12T02:06:32;75924.22;;;-145.25;79.27
54146;BME280;40052;49.422;7.738;2022-10-12T02:09:09;75908.19;;;-145.25;79.33
54146;BME280;40052;49.422;7.738;2022-10-12T02:11:40;75890.13;;;-145.25;78.84
54146;BME280;40052;49.422;7.738;2022-10-12T02:14:11;75882.13;;;-145.25;78.26
54146;BME280;40052;49.422;7.738;2022-10-12T02:16:46;75878.13;;;-145.25;78.24
54146;BME280;40052;49.422;7.738;2022-10-12T02:19:17;75898.16;;;-145.25;78.73
54146;BME280;40052;49.422;7.738;2022-10-12T02:21:46;75908.19;;;-145.25;79.57
54146;BME280;40052;49.422;7.738;2022-10-12T02:24:16;75900.16;;;-145.25;79.54
54146;BME280;40052;49.422;7.738;2022-10-12T02:26:46;75900.16;;;-145.25;79.63
54146;BME280;40052;49.422;7.738;2022-10-12T02:29:15;75920.22;;;-145.25;79.36
54146;BME280;40052;49.422;7.738;2022-10-12T02:34:27;75942.25;;;-145.25;81.19
54146;BME280;40052;49.422;7.738;2022-10-12T02:37:01;75950.28;;;-145.25;81.52
54146;BME280;40052;49.422;7.738;2022-10-12T02:39:42;75940.25;;;-145.25;81.00
54146;BME280;40052;49.422;7.738;2022-10-12T02:42:12;75948.28;;;-145.25;80.20
54146;BME280;40052;49.422;7.738;2022-10-12T02:44:40;75934.25;;;-145.25;79.74
54146;BME280;40052;49.422;7.738;2022-10-12T02:47:13;75936.25;;;-145.25;79.45
54146;BME280;40052;49.422;7.738;2022-10-12T02:49:40;75942.25;;;-145.25;79.81
54146;BME280;40052;49.422;7.738;2022-10-12T02:52:07;75950.28;;;-145.25;80.47
54146;BME280;40052;49.422;7.738;2022-10-12T02:54:33;75950.28;;;-145.25;81.01
54146;BME280;40052;49.422;7.738;2022-10-12T02:56:58;75958.28;;;-145.25;81.73
54146;BME280;40052;49.422;7.738;2022-10-12T02:59:24;75948.28;;;-145.25;81.85
54146;BME280;40052;49.422;7.738;2022-10-12T03:01:49;75952.28;;;-145.25;82.00
54146;BME280;40052;49.422;7.738;2022-10-12T03:04:20;75956.28;;;-145.25;81.65
54146;BME280;40052;49.422;7.738;2022-10-12T03:06:45;75950.28;;;-145.25;81.76
54146;BME280;40052;49.422;7.738;2022-10-12T03:09:13;75950.28;;;-145.25;80.78
54146;BME280;40052;49.422;7.738;2022-10-12T03:11:41;75950.28;;;-145.25;80.78
54146;BME280;40052;49.422;7.738;2022-10-12T03:14:13;75956.28;;;-145.25;80.53
54146;BME280;40052;49.422;7.738;2022-10-12T03:16:42;75986.38;;;-145.25;80.90
54146;BME280;40052;49.422;7.738;2022-10-12T03:19:10;75990.38;;;-145.25;81.63
54146;BME280;40052;49.422;7.738;2022-10-12T03:21:36;75950.28;;;-145.25;80.64
54146;BME280;40052;49.422;7.738;2022-10-12T03:24:04;75934.25;;;-145.25;79.20
54146;BME280;40052;49.422;7.738;2022-10-12T03:28:58;75936.25;;;-145.25;78.76
54146;BME280;40052;49.422;7.738;2022-10-12T03:31:25;75956.28;;;-145.25;79.44
54146;BME280;40052;49.422;7.738;2022-10-12T03:33:53;75976.34;;;-145.25;79.70
54146;BME280;40052;49.422;7.738;2022-10-12T03:36:20;75980.34;;;-145.25;80.34
54146;BME280;40052;49.422;7.738;2022-10-12T03:38:48;75974.34;;;-145.25;80.58
54146;BME280;40052;49.422;7.738;2022-10-12T03:41:15;75986.38;;;-145.25;80.75
54146;BME280;40052;49.422;7.738;2022-10-12T03:43:40;75990.38;;;-145.25;81.05
54146;BME280;40052;49.422;7.738;2022-10-12T03:46:08;75990.38;;;-145.25;81.57
54146;BME280;40052;49.422;7.738;2022-10-12T03:48:33;75996.38;;;-145.25;81.80
54146;BME280;40052;49.422;7.738;2022-10-12T03:51:03;75994.38;;;-145.25;81.68
54146;BME280;40052;49.422;7.738;2022-10-12T03:53:31;75984.34;;;-145.25;81.68
54146;BME280;40052;49.422;7.738;2022-10-12T03:55:59;75986.38;;;-145.25;81.27
54146;BME280;40052;49.422;7.738;2022-10-12T03:58:26;75996.38;;;-145.25;81.55
54146;BME280;40052;49.422;7.738;2022-10-12T04:00:54;76020.44;;;-145.25;82.24
54146;BME280;40052;49.422;7.738;2022-10-12T04:03:20;76000.41;;;-145.25;81.98
54146;BME280;40052;49.422;7.738;2022-10-12T04:05:53;75998.38;;;-145.25;80.60
54146;BME280;40052;49.422;7.738;2022-10-12T04:08:19;75978.34;;;-145.25;79.19
54146;BME280;40052;49.422;7.738;2022-10-12T04:10:44;75996.38;;;-145.25;78.31
54146;BME280;40052;49.422;7.738;2022-10-12T04:13:10;75998.38;;;-145.25;78.97
54146;BME280;40052;49.422;7.738;2022-10-12T04:15:40;76006.41;;;-145.25;79.50
54146;BME280;40052;49.422;7.738;2022-10-12T04:18:05;76016.44;;;-145.25;80.42
54146;BME280;40052;49.422;7.738;2022-10-12T04:20:30;76026.44;;;-145.25;81.35
54146;BME280;40052;49.422;7.738;2022-10-12T04:22:58;76020.44;;;-145.25;81.68
54146;BME280;40052;49.422;7.738;2022-10-12T04:25:28;76034.47;;;-145.25;82.15
54146;BME280;40052;49.422;7.738;2022-10-12T04:27:58;76030.47;;;-145.25;82.44
54146;BME280;40052;49.422;7.738;2022-10-12T04:30:24;76034.47;;;-145.25;80.87
54146;BME280;40052;49.422;7.738;2022-10-12T04:32:52;76028.47;;;-145.25;79.75
54146;BME280;40052;49.422;7.738;2022-10-12T04:35:17;76064.53;;;-145.25;80.58
54146;BME280;40052;49.422;7.738;2022-10-12T04:37:45;76060.53;;;-145.25;80.95
54146;BME280;40052;49.422;7.738;2022-10-12T04:40:11;76042.50;;;-145.25;81.16
54146;BME280;40052;49.422;7.738;2022-10-12T04:42:36;76014.44;;;-145.25;79.56
54146;BME280;40052;49.422;7.738;2022-10-12T04:45:04;76000.41;;;-145.25;78.70
54146;BME280;40052;49.422;7.738;2022-10-12T04:47:30;75994.38;;;-145.25;78.87
54146;BME280;40052;49.422;7.738;2022-10-12T04:49:55;76004.41;;;-145.25;79.06
54146;BME280;40052;49.422;7.738;2022-10-12T04:52:22;76016.44;;;-145.25;79.63
54146;BME280;40052;49.422;7.738;2022-10-12T04:54:48;76028.47;;;-145.25;80.15
54146;BME280;40052;49.422;7.738;2022-10-12T04:57:13;76024.44;;;-145.25;80.22
54146;BME280;40052;49.422;7.738;2022-10-12T04:59:39;76018.44;;;-145.25;80.64
54146;BME280;40052;49.422;7.738;2022-10-12T05:02:07;76018.44;;;-145.25;80.48
54146;BME280;40052;49.422;7.738;2022-10-12T05:04:35;75998.38;;;-145.25;80.24
54146;BME280;40052;49.422;7.738;2022-10-12T05:07:02;76002.41;;;-145.25;80.35
54146;BME280;40052;49.422;7.738;2022-10-12T05:09:27;76012.41;;;-145.25;80.72
54146;BME280;40052;49.422;7.738;2022-10-12T05:11:55;75996.38;;;-145.25;80.80
54146;BME280;40052;49.422;7.738;2022-10-12T05:14:20;75978.34;;;-145.25;80.37
54146;BME280;40052;49.422;7.738;2022-10-12T05:16:48;75984.34;;;-145.25;80.19
54146;BME280;40052;49.422;7.738;2022-10-12T05:19:13;75980.34;;;-145.25;79.80
54146;BME280;40052;49.422;7.738;2022-10-12T05:21:41;75996.38;;;-145.25;79.67
54146;BME280;40052;49.422;7.738;2022-10-12T05:24:10;75986.38;;;-145.25;81.17
54146;BME280;40052;49.422;7.738;2022-10-12T05:26:35;75970.31;;;-145.25;81.12
54146;BME280;40052;49.422;7.738;2022-10-12T05:29:01;75980.34;;;-145.25;80.41
54146;BME280;40052;49.422;7.738;2022-10-12T05:31:26;75984.34;;;-145.25;80.83
54146;BME280;40052;49.422;7.738;2022-10-12T05:33:54;76004.41;;;-145.25;82.15
54146;BME280;40052;49.422;7.738;2022-10-12T05:36:19;75986.38;;;-145.25;82.51
54146;BME280;40052;49.422;7.738;2022-10-12T05:38:50;75964.31;;;-145.25;81.86
54146;BME280;40052;49.422;7.738;2022-10-12T05:41:15;75976.34;;;-145.25;81.26
54146;BME280;40052;49.422;7.738;2022-10-12T05:43:40;75976.34;;;-145.25;82.78
54146;BME280;40052;49.422;7.738;2022-10-12T05:46:06;75980.34;;;-145.25;82.91
54146;BME280;40052;49.422;7.738;2022-10-12T05:48:31;75970.31;;;-145.25;82.85
54146;BME280;40052;49.422;7.738;2022-10-12T05:50:59;75984.34;;;-145.25;81.60
54146;BME280;40052;49.422;7.738;2022-10-12T05:53:27;75994.38;;;-145.25;81.24
54146;BME280;40052;49.422;7.738;2022-10-12T05:55:58;76004.41;;;-145.25;81.40
54146;BME280;40052;49.422;7.738;2022-10-12T05:58:27;76008.41;;;-145.25;81.68
54146;BME280;40052;49.422;7.738;2022-10-12T06:00:54;75992.38;;;-145.25;81.61
54146;BME280;40052;49.422;7.738;2022-10-12T06:03:22;75978.34;;;-145.25;81.24
54146;BME280;40052;49.422;7.738;2022-10-12T06:05:52;75972.34;;;-145.25;81.23
54146;BME280;40052;49.422;7.738;2022-10-12T06:08:20;75972.34;;;-145.25;80.98
54146;BME280;40052;49.422;7.738;2022-10-12T06:10:50;75984.34;;;-145.25;81.32
54146;BME280;40052;49.422;7.738;2022-10-12T06:13:15;75990.38;;;-145.25;81.99
54146;BME280;40052;49.422;7.738;2022-10-12T06:15:44;75980.34;;;-145.25;82.12
54146;BME280;40052;49.422;7.738;2022-10-12T06:18:13;75960.31;;;-145.25;81.81
54146;BME280;40052;49.422;7.738;2022-10-12T06:20:39;75940.25;;;-145.25;81.00
54146;BME280;40052;49.422;7.738;2022-10-12T06:23:05;75934.25;;;-145.25;80.64
54146;BME280;40052;49.422;7.738;2022-10-12T06:25:31;75928.22;;;-145.25;80.29
54146;BME280;40052;49.422;7.738;2022-10-12T06:27:59;75924.22;;;-145.25;80.48
54146;BME280;40052;49.422;7.738;2022-10-12T06:30:24;75914.19;;;-145.25;80.76
54146;BME280;40052;49.422;7.738;2022-10-12T06:32:52;75930.22;;;-145.25;81.26
54146;BME280;40052;49.422;7.738;2022-10-12T06:35:19;75928.22;;;-145.25;82.13
54146;BME280;40052;49.422;7.738;2022-10-12T06:37:49;75922.22;;;-145.25;80.81
54146;BME280;40052;49.422;7.738;2022-10-12T06:40:15;75920.22;;;-145.25;80.47
54146;BME280;40052;49.422;7.738;2022-10-12T06:42:43;75918.19;;;-145.25;80.58
54146;BME280;40052;49.422;7.738;2022-10-12T06:45:08;75900.16;;;-145.25;80.25
54146;BME280;40052;49.422;7.738;2022-10-12T06:47:34;75894.16;;;-145.25;80.10
54146;BME280;40052;49.422;7.738;2022-10-12T06:49:59;75884.13;;;-145.25;80.26
54146;BME280;40052;49.422;7.738;2022-10-12T06:52:27;75902.16;;;-145.25;80.93
54146;BME280;40052;49.422;7.738;2022-10-12T06:54:55;75882.13;;;-145.25;80.69
54146;BME280;40052;49.422;7.738;2022-10-12T06:57:20;75860.06;;;-145.25;80.52
54146;BME280;40052;49.422;7.738;2022-10-12T06:59:46;75848.03;;;-145.25;80.73
54146;BME280;40052;49.422;7.738;2022-10-12T07:02:14;75821.97;;;-145.25;80.61
54146;BME280;40052;49.422;7.738;2022-10-12T07:04:41;75834.00;;;-145.25;81.23
54146;BME280;40052;49.422;7.738;2022-10-12T07:07:06;75801.94;;;-145.25;79.78
54146;BME280;40052;49.422;7.738;2022-10-12T07:09:32;75781.91;;;-145.25;79.86
54146;BME280;40052;49.422;7.738;2022-10-12T07:11:57;75765.84;;;-145.25;78.99
54146;BME280;40052;49.422;7.738;2022-10-12T07:14:23;75747.81;;;-145.25;79.18
54146;BME280;40052;49.422;7.738;2022-10-12T07:16:48;75733.78;;;-145.25;78.59
54146;BME280;40052;49.422;7.738;2022-10-12T07:19:13;75731.78;;;-145.25;77.90
54146;BME280;40052;49.422;7.738;2022-10-12T07:21:41;75749.81;;;-145.25;78.68
54146;BME280;40052;49.422;7.738;2022-10-12T07:24:10;75747.81;;;-145.25;79.27
54146;BME280;40052;49.422;7.738;2022-10-12T07:26:35;75731.78;;;-145.25;79.34
54146;BME280;40052;49.422;7.738;2022-10-12T07:29:01;75735.78;;;-145.25;79.49
54146;BME280;40052;49.422;7.738;2022-10-12T07:31:26;75713.75;;;-145.25;78.65
54146;BME280;40052;49.422;7.738;2022-10-12T07:33:53;75695.69;;;-145.25;78.13
54146;BME280;40052;49.422;7.738;2022-10-12T07:36:20;75669.66;;;-145.25;77.25
54146;BME280;40052;49.422;7.738;2022-10-12T07:38:46;75657.63;;;-145.25;76.59
54146;BME280;40052;49.422;7.738;2022-10-12T07:41:13;75637.56;;;-145.25;77.06
54146;BME280;40052;49.422;7.738;2022-10-12T07:43:39;75611.50;;;-145.25;75.75
54146;BME280;40052;49.422;7.738;2022-10-12T07:46:04;75573.44;;;-145.25;75.08
54146;BME280;40052;49.422;7.738;2022-10-12T07:48:30;75553.38;;;-145.25;73.73
54146;BME280;40052;49.422;7.738;2022-10-12T07:51:04;75549.38;;;-145.25;73.23
54146;BME280;40052;49.422;7.738;2022-10-12T07:53:32;75533.34;;;-145.25;73.19
54146;BME280;40052;49.422;7.738;2022-10-12T07:56:02;75567.41;;;-145.25;74.41
54146;BME280;40052;49.422;7.738;2022-10-12T07:58:28;75527.31;;;-145.25;73.73
54146;BME280;40052;49.422;7.738;2022-10-12T08:00:53;75551.38;;;-145.25;73.83
54146;BME280;40052;49.422;7.738;2022-10-12T08:03:18;75579.44;;;-145.25;74.00
54146;BME280;40052;49.422;7.738;2022-10-12T08:05:46;75553.38;;;-145.25;73.93
54146;BME280;40052;49.422;7.738;2022-10-12T08:08:12;75537.34;;;-145.25;72.78
54146;BME280;40052;49.422;7.738;2022-10-12T08:10:40;75539.34;;;-145.25;73.23
54146;BME280;40052;49.422;7.738;2022-10-12T08:13:08;75523.31;;;-145.25;73.12
54146;BME280;40052;49.422;7.738;2022-10-12T08:15:35;75523.31;;;-145.25;72.38
54146;BME280;40052;49.422;7.738;2022-10-12T08:18:03;75491.25;;;-145.25;71.68
54146;BME280;40052;49.422;7.738;2022-10-12T08:20:28;75451.16;;;-145.25;71.70
54146;BME280;40052;49.422;7.738;2022-10-12T08:22:56;75419.09;;;-145.25;70.15
54146;BME280;40052;49.422;7.738;2022-10-12T08:25:23;75413.09;;;-145.25;68.73
54146;BME280;40052;49.422;7.738;2022-10-12T08:27:49;75375.00;;;-145.25;68.23
54146;BME280;40052;49.422;7.738;2022-10-12T08:30:17;75352.94;;;-145.25;67.76
54146;BME280;40052;49.422;7.738;2022-10-12T08:32:42;75336.91;;;-145.25;66.90
54146;BME280;40052;49.422;7.738;2022-10-12T08:35:07;75334.91;;;-145.25;66.62
54146;BME280;40052;49.422;7.738;2022-10-12T08:37:33;75324.88;;;-145.25;66.31
54146;BME280;40052;49.422;7.738;2022-10-12T08:40:01;75296.84;;;-145.25;65.72
54146;BME280;40052;49.422;7.738;2022-10-12T08:45:26;75264.75;;;-145.25;64.93
54146;BME280;40052;49.422;7.738;2022-10-12T08:47:58;75262.75;;;-145.25;64.59
54146;BME280;40052;49.422;7.738;2022-10-12T08:50:31;75246.72;;;-145.25;64.39
54146;BME280;40052;49.422;7.738;2022-10-12T08:55:40;75214.66;;;-145.25;63.71
54146;BME280;40052;49.422;7.738;2022-10-12T08:58:31;75210.66;;;-145.25;64.38
54146;BME280;40052;49.422;7.738;2022-10-12T09:01:33;75186.59;;;-145.25;63.66
54146;BME280;40052;49.422;7.738;2022-10-12T09:04:44;75138.50;;;-145.25;62.07
54146;BME280;40052;49.422;7.738;2022-10-12T09:07:25;75116.44;;;-145.25;61.70
54146;BME280;40052;49.422;7.738;2022-10-12T09:15:21;75154.53;;;-145.25;62.01
54146;BME280;40052;49.422;7.738;2022-10-12T09:17:56;75156.53;;;-145.25;62.44
54146;BME280;40052;49.422;7.738;2022-10-12T09:20:26;75158.53;;;-145.25;63.60
54146;BME280;40052;49.422;7.738;2022-10-12T09:23:00;75190.59;;;-145.25;63.94
54146;BME280;40052;49.422;7.738;2022-10-12T09:25:29;75166.56;;;-145.25;63.83
54146;BME280;40052;49.422;7.738;2022-10-12T09:28:07;75178.59;;;-145.25;64.10
54146;BME280;40052;49.422;7.738;2022-10-12T09:30:37;75188.59;;;-145.25;64.70
54146;BME280;40052;49.422;7.738;2022-10-12T09:33:21;75174.56;;;-145.25;64.59
54146;BME280;40052;49.422;7.738;2022-10-12T09:35:51;75160.53;;;-145.25;64.78
54146;BME280;40052;49.422;7.738;2022-10-12T09:38:20;75158.53;;;-145.25;64.30
54146;BME280;40052;49.422;7.738;2022-10-12T09:40:50;75098.41;;;-145.25;63.41
54146;BME280;40052;49.422;7.738;2022-10-12T09:43:20;75010.22;;;-145.25;62.25
54146;BME280;40052;49.422;7.738;2022-10-12T09:45:46;74958.13;;;-145.25;61.19
54146;BME280;40052;49.422;7.738;2022-10-12T09:50:46;74944.09;;;-145.25;60.63
54146;BME280;40052;49.422;7.738;2022-10-12T09:56:02;74906.00;;;-145.25;60.81
54146;BME280;40052;49.422;7.738;2022-10-12T09:58:39;74896.00;;;-145.25;60.41
54146;BME280;40052;49.422;7.738;2022-10-12T10:03:47;74894.00;;;-145.25;59.97
54146;BME280;40052;49.422;7.738;2022-10-12T10:06:12;74835.88;;;-145.25;59.71
54146;BME280;40052;49.422;7.738;2022-10-12T10:08:44;74777.75;;;-145.25;59.37
54146;BME280;40052;49.422;7.738;2022-10-12T10:11:20;74773.75;;;-145.25;59.04
54146;BME280;40052;49.422;7.738;2022-10-12T10:13:49;74823.84;;;-145.25;60.34
54146;BME280;40052;49.422;7.738;2022-10-12T10:16:16;74809.81;;;-145.25;61.46
54146;BME280;40052;49.422;7.738;2022-10-12T10:18:44;74827.84;;;-145.25;61.85
54146;BME280;40052;49.422;7.738;2022-10-12T10:21:15;74889.97;;;-145.25;62.12
54146;BME280;40052;49.422;7.738;2022-10-12T10:23:59;74885.97;;;-145.25;62.25
54146;BME280;40052;49.422;7.738;2022-10-12T10:26:30;74855.91;;;-145.25;62.23
54146;BME280;40052;49.422;7.738;2022-10-12T10:34:40;74922.06;;;-145.25;63.45
54146;BME280;40052;49.422;7.738;2022-10-12T10:37:05;74994.19;;;-145.25;64.61
54146;BME280;40052;49.422;7.738;2022-10-12T10:39:38;74978.16;;;-145.25;65.08
54146;BME280;40052;49.422;7.738;2022-10-12T10:42:15;74944.09;;;-145.25;65.71
54146;BME280;40052;49.422;7.738;2022-10-12T10:44:48;74958.13;;;-145.25;64.30
54146;BME280;40052;49.422;7.738;2022-10-12T10:47:15;74924.06;;;-145.25;64.66
54146;BME280;40052;49.422;7.738;2022-10-12T10:52:17;74898.00;;;-145.25;64.25
54146;BME280;40052;49.422;7.738;2022-10-12T10:54:44;74879.97;;;-145.25;65.21
54146;BME280;40052;49.422;7.738;2022-10-12T10:57:14;74902.00;;;-145.25;64.25
54146;BME280;40052;49.422;7.738;2022-10-12T11:02:30;74819.84;;;-145.25;63.70
54146;BME280;40052;49.422;7.738;2022-10-12T11:07:40;74775.75;;;-145.25;62.41
54146;BME280;40052;49.422;7.738;2022-10-12T11:10:47;74765.72;;;-145.25;62.78
54146;BME280;40052;49.422;7.738;2022-10-12T11:13:24;74767.72;;;-145.25;62.66
54146;BME280;40052;49.422;7.738;2022-10-12T11:15:56;74767.72;;;-145.25;62.54
54146;BME280;40052;49.422;7.738;2022-10-12T11:18:32;74733.66;;;-145.25;62.31
54146;BME280;40052;49.422;7.738;2022-10-12T11:21:20;74717.63;;;-145.25;61.63
54146;BME280;40052;49.422;7.738;2022-10-12T11:24:03;74737.69;;;-145.25;62.09
54146;BME280;40052;49.422;7.738;2022-10-12T11:27:03;74713.63;;;-145.25;62.74
54146;BME280;40052;49.422;7.738;2022-10-12T11:29:33;74695.59;;;-145.25;61.84
54146;BME280;40052;49.422;7.738;2022-10-12T11:34:48;74679.56;;;-145.25;61.78
54146;BME280;40052;49.422;7.738;2022-10-12T11:37:23;74689.59;;;-145.25;62.23
54146;BME280;40052;49.422;7.738;2022-10-12T11:39:56;74661.53;;;-145.25;61.70
54146;BME280;40052;49.422;7.738;2022-10-12T11:42:31;74663.53;;;-145.25;62.15
54146;BME280;40052;49.422;7.738;2022-10-12T11:44:59;74661.53;;;-145.25;62.92
54146;BME280;40052;49.422;7.738;2022-10-12T11:50:04;74661.53;;;-145.25;62.98
54146;BME280;40052;49.422;7.738;2022-10-12T11:52:37;74695.59;;;-145.25;63.15
54146;BME280;40052;49.422;7.738;2022-10-12T11:55:29;74703.59;;;-145.25;63.71
54146;BME280;40052;49.422;7.738;2022-10-12T11:57:59;74695.59;;;-145.25;63.45
54146;BME280;40052;49.422;7.738;2022-10-12T12:00:53;74671.53;;;-145.25;63.60
54146;BME280;40052;49.422;7.738;2022-10-12T12:11:23;74559.31;;;-145.25;61.21
54146;BME280;40052;49.422;7.738;2022-10-12T12:13:49;74553.31;;;-145.25;61.83
54146;BME280;40052;49.422;7.738;2022-10-12T12:22:10;74601.41;;;-145.25;62.25
54146;BME280;40052;49.422;7.738;2022-10-12T12:24:36;74591.38;;;-145.25;62.71
54146;BME280;40052;49.422;7.738;2022-10-12T12:27:02;74605.41;;;-145.25;62.54
54146;BME280;40052;49.422;7.738;2022-10-12T12:29:29;74627.47;;;-145.25;62.35
54146;BME280;40052;49.422;7.738;2022-10-12T12:31:59;74661.53;;;-145.25;63.22
54146;BME280;40052;49.422;7.738;2022-10-12T12:34:25;74555.31;;;-145.25;61.66
54146;BME280;40052;49.422;7.738;2022-10-12T12:36:53;74557.31;;;-145.25;60.90
54146;BME280;40052;49.422;7.738;2022-10-12T12:41:56;74489.19;;;-145.25;60.41
54146;BME280;40052;49.422;7.738;2022-10-12T12:44:39;74340.91;;;-145.25;56.97
54146;BME280;40052;49.422;7.738;2022-10-12T12:52:03;74509.22;;;-145.25;59.78
54146;BME280;40052;49.422;7.738;2022-10-12T12:54:34;74507.22;;;-145.25;60.18
54146;BME280;40052;49.422;7.738;2022-10-12T13:05:38;74314.84;;;-145.25;56.36
54146;BME280;40052;49.422;7.738;2022-10-12T13:08:39;74370.97;;;-145.25;56.84
54146;BME280;40052;49.422;7.738;2022-10-12T13:16:51;74304.84;;;-145.25;55.01
54146;BME280;40052;49.422;7.738;2022-10-12T13:19:20;74332.88;;;-145.25;55.79
54146;BME280;40052;49.422;7.738;2022-10-12T13:21:48;74332.88;;;-145.25;55.61
54146;BME280;40052;49.422;7.738;2022-10-12T13:24:30;74338.91;;;-145.25;55.96
54146;BME280;40052;49.422;7.738;2022-10-12T13:27:20;74232.69;;;-145.25;54.55
54146;BME280;40052;49.422;7.738;2022-10-12T13:29:53;74288.81;;;-145.25;55.18
54146;BME280;40052;49.422;7.738;2022-10-12T13:32:50;74376.97;;;-145.25;57.12
54146;BME280;40052;49.422;7.738;2022-10-12T13:35:28;74316.84;;;-145.25;56.53
54146;BME280;40052;49.422;7.738;2022-10-12T13:38:22;74326.88;;;-145.25;56.63
54146;BME280;40052;49.422;7.738;2022-10-12T13:41:35;74380.97;;;-145.25;57.95
54146;BME280;40052;49.422;7.738;2022-10-12T13:43:52;74407.03;;;-145.25;58.53
54146;BME280;40052;49.422;7.738;2022-10-12T13:46:41;74421.06;;;-145.25;58.87
54146;BME280;40052;49.422;7.738;2022-10-12T13:49:41;74342.91;;;-145.25;57.32
54146;BME280;40052;49.422;7.738;2022-10-12T13:54:39;74212.66;;;-145.25;55.31
54146;BME280;40052;49.422;7.738;2022-10-12T13:59:44;74246.72;;;-145.25;55.31
54146;BME280;40052;49.422;7.738;2022-10-12T14:02:22;74266.75;;;-145.25;55.98
54146;BME280;40052;49.422;7.738;2022-10-12T14:04:52;74308.84;;;-145.25;56.95
54146;BME280;40052;49.422;7.738;2022-10-12T14:07:20;74218.69;;;-145.25;55.40
54146;BME280;40052;49.422;7.738;2022-10-12T14:09:53;74270.78;;;-145.25;56.09
54146;BME280;40052;49.422;7.738;2022-10-12T14:12:22;74368.97;;;-145.25;57.76
54146;BME280;40052;49.422;7.738;2022-10-12T14:14:49;74234.69;;;-145.25;56.45
54146;BME280;40052;49.422;7.738;2022-10-12T14:17:18;74252.75;;;-145.25;55.89
54146;BME280;40052;49.422;7.738;2022-10-12T14:22:25;74216.66;;;-145.25;55.02
54146;BME280;40052;49.422;7.738;2022-10-12T14:25:06;74114.47;;;-145.25;53.34
54146;BME280;40052;49.422;7.738;2022-10-12T14:27:33;74070.41;;;-145.25;52.15
54146;BME280;40052;49.422;7.738;2022-10-12T14:30:24;74100.47;;;-145.25;52.65
54146;BME280;40052;49.422;7.738;2022-10-12T14:32:53;74112.47;;;-145.25;53.26
54146;BME280;40052;49.422;7.738;2022-10-12T14:35:28;74130.50;;;-145.25;53.39
54146;BME280;40052;49.422;7.738;2022-10-12T14:37:57;74144.53;;;-145.25;53.40
54146;BME280;40052;49.422;7.738;2022-10-12T14:40:27;74276.78;;;-145.25;56.65
54146;BME280;40052;49.422;7.738;2022-10-12T14:43:19;74340.91;;;-145.25;57.93
54146;BME280;40052;49.422;7.738;2022-10-12T14:45:44;74407.03;;;-145.25;60.94
54146;BME280;40052;49.422;7.738;2022-10-12T14:48:17;74423.06;;;-145.25;60.79
54146;BME280;40052;49.422;7.738;2022-10-12T14:50:43;74441.09;;;-145.25;61.85